sensor_id;sensor_type;location;lat;lon;timestamp;P1;durP1;ratioP1;P2;durP2;ratioP2
71238;SDS011;61342;51.442;7.370;2023-05-07T00:00:03;11.63;;;5.40;;
71238;SDS011;61342;51.442;7.370;2023-05-07T00:01:09;5.17;;;4.67;;
71238;SDS011;61342;51.442;7.370;2023-05-07T00:02:10;6.10;;;5.50;;
71238;SDS011;61342;51.442;7.370;2023-05-07T00:03:11;5.70;;;4.80;;
71238;SDS011;61342;51.442;7.370;2023-05-07T00:04:13;5.70;;;5.10;;
71238;SDS011;61342;51.442;7.370;2023-05-07T00:05:14;5.53;;;4.90;;
71238;SDS011;61342;51.442;7.370;2023-05-07T00:06:14;7.07;;;4.67;;
71238;SDS011;61342;51.442;7.370;2023-05-07T00:07:15;6.10;;;4.60;;
71238;SDS011;61342;51.442;7.370;2023-05-07T00:08:15;5.97;;;4.63;;
71238;SDS011;61342;51.442;7.370;2023-05-07T00:09:16;7.83;;;5.00;;
71238;SDS011;61342;51.442;7.370;2023-05-07T00:10:16;6.00;;;4.87;;
71238;SDS011;61342;51.442;7.370;2023-05-07T00:11:17;6.50;;;4.80;;
71238;SDS011;61342;51.442;7.370;2023-05-07T00:12:17;7.57;;;5.53;;
71238;SDS011;61342;51.442;7.370;2023-05-07T00:13:17;8.77;;;5.43;;
71238;SDS011;61342;51.442;7.370;2023-05-07T00:14:18;6.77;;;5.30;;
71238;SDS011;61342;51.442;7.370;2023-05-07T00:15:18;7.13;;;5.47;;
71238;SDS011;61342;51.442;7.370;2023-05-07T00:16:19;6.67;;;5.17;;
71238;SDS011;61342;51.442;7.370;2023-05-07T00:17:19;8.77;;;5.70;;
71238;SDS011;61342;51.442;7.370;2023-05-07T00:18:20;9.37;;;5.63;;
71238;SDS011;61342;51.442;7.370;2023-05-07T00:19:22;6.07;;;4.90;;
71238;SDS011;61342;51.442;7.370;2023-05-07T00:20:22;6.07;;;5.47;;
71238;SDS011;61342;51.442;7.370;2023-05-07T00:21:23;5.57;;;4.90;;
71238;SDS011;61342;51.442;7.370;2023-05-07T00:22:26;6.00;;;5.40;;
71238;SDS011;61342;51.442;7.370;2023-05-07T00:23:26;6.67;;;5.30;;
71238;SDS011;61342;51.442;7.370;2023-05-07T00:24:27;7.67;;;5.37;;
71238;SDS011;61342;51.442;7.370;2023-05-07T00:25:27;8.43;;;5.53;;
71238;SDS011;61342;51.442;7.370;2023-05-07T00:26:28;5.70;;;5.07;;
71238;SDS011;61342;51.442;7.370;2023-05-07T00:27:28;8.50;;;5.10;;
71238;SDS011;61342;51.442;7.370;2023-05-07T00:28:28;6.07;;;5.50;;
71238;SDS011;61342;51.442;7.370;2023-05-07T00:29:29;7.13;;;5.60;;
71238;SDS011;61342;51.442;7.370;2023-05-07T00:30:29;6.23;;;5.10;;
71238;SDS011;61342;51.442;7.370;2023-05-07T00:31:30;7.03;;;5.60;;
71238;SDS011;61342;51.442;7.370;2023-05-07T00:32:30;6.20;;;5.20;;
71238;SDS011;61342;51.442;7.370;2023-05-07T00:33:31;6.17;;;5.23;;
71238;SDS011;61342;51.442;7.370;2023-05-07T00:34:31;8.20;;;5.03;;
71238;SDS011;61342;51.442;7.370;2023-05-07T00:35:31;7.13;;;5.57;;
71238;SDS011;61342;51.442;7.370;2023-05-07T00:36:32;6.43;;;5.83;;
71238;SDS011;61342;51.442;7.370;2023-05-07T00:37:32;7.90;;;6.00;;
71238;SDS011;61342;51.442;7.370;2023-05-07T00:38:32;7.37;;;6.07;;
71238;SDS011;61342;51.442;7.370;2023-05-07T00:39:33;6.93;;;5.70;;
71238;SDS011;61342;51.442;7.370;2023-05-07T00:40:34;6.87;;;6.17;;
71238;SDS011;61342;51.442;7.370;2023-05-07T00:41:35;7.43;;;6.00;;
71238;SDS011;61342;51.442;7.370;2023-05-07T00:42:35;8.23;;;6.00;;
71238;SDS011;61342;51.442;7.370;2023-05-07T00:43:36;9.30;;;6.30;;
71238;SDS011;61342;51.442;7.370;2023-05-07T00:44:37;6.57;;;5.90;;
71238;SDS011;61342;51.442;7.370;2023-05-07T00:45:38;6.50;;;5.90;;
71238;SDS011;61342;51.442;7.370;2023-05-07T00:46:39;8.27;;;5.70;;
71238;SDS011;61342;51.442;7.370;2023-05-07T00:47:40;8.40;;;6.20;;
71238;SDS011;61342;51.442;7.370;2023-05-07T00:48:40;7.47;;;6.53;;
71238;SDS011;61342;51.442;7.370;2023-05-07T00:49:41;7.40;;;6.17;;
71238;SDS011;61342;51.442;7.370;2023-05-07T00:50:43;10.23;;;7.33;;
71238;SDS011;61342;51.442;7.370;2023-05-07T00:51:44;8.60;;;6.80;;
71238;SDS011;61342;51.442;7.370;2023-05-07T00:52:45;9.73;;;7.17;;
71238;SDS011;61342;51.442;7.370;2023-05-07T00:53:46;9.27;;;7.27;;
71238;SDS011;61342;51.442;7.370;2023-05-07T00:54:46;11.87;;;7.10;;
71238;SDS011;61342;51.442;7.370;2023-05-07T00:55:47;7.30;;;6.60;;
71238;SDS011;61342;51.442;7.370;2023-05-07T00:56:48;7.70;;;6.90;;
71238;SDS011;61342;51.442;7.370;2023-05-07T00:57:48;8.27;;;6.67;;
71238;SDS011;61342;51.442;7.370;2023-05-07T00:58:50;7.00;;;6.30;;
71238;SDS011;61342;51.442;7.370;2023-05-07T00:59:51;9.37;;;7.23;;
71238;SDS011;61342;51.442;7.370;2023-05-07T01:00:52;7.60;;;6.80;;
71238;SDS011;61342;51.442;7.370;2023-05-07T01:01:52;7.47;;;6.70;;
71238;SDS011;61342;51.442;7.370;2023-05-07T01:02:53;7.93;;;6.73;;
71238;SDS011;61342;51.442;7.370;2023-05-07T01:03:53;8.27;;;6.60;;
71238;SDS011;61342;51.442;7.370;2023-05-07T01:04:54;6.93;;;6.23;;
71238;SDS011;61342;51.442;7.370;2023-05-07T01:05:55;10.63;;;6.80;;
71238;SDS011;61342;51.442;7.370;2023-05-07T01:06:59;11.90;;;7.00;;
71238;SDS011;61342;51.442;7.370;2023-05-07T01:08:01;7.63;;;6.13;;
71238;SDS011;61342;51.442;7.370;2023-05-07T01:09:02;8.10;;;6.83;;
71238;SDS011;61342;51.442;7.370;2023-05-07T01:10:04;6.80;;;6.10;;
71238;SDS011;61342;51.442;7.370;2023-05-07T01:11:06;8.30;;;5.97;;
71238;SDS011;61342;51.442;7.370;2023-05-07T01:12:08;7.10;;;5.80;;
71238;SDS011;61342;51.442;7.370;2023-05-07T01:13:12;6.87;;;5.67;;
71238;SDS011;61342;51.442;7.370;2023-05-07T01:14:13;7.57;;;5.60;;
71238;SDS011;61342;51.442;7.370;2023-05-07T01:15:14;7.30;;;5.73;;
71238;SDS011;61342;51.442;7.370;2023-05-07T01:16:15;6.73;;;5.67;;
71238;SDS011;61342;51.442;7.370;2023-05-07T01:17:16;6.80;;;5.77;;
71238;SDS011;61342;51.442;7.370;2023-05-07T01:18:16;9.00;;;5.53;;
71238;SDS011;61342;51.442;7.370;2023-05-07T01:19:17;7.67;;;5.37;;
71238;SDS011;61342;51.442;7.370;2023-05-07T01:20:18;7.73;;;6.27;;
71238;SDS011;61342;51.442;7.370;2023-05-07T01:21:19;7.17;;;5.30;;
71238;SDS011;61342;51.442;7.370;2023-05-07T01:22:28;5.87;;;5.17;;
71238;SDS011;61342;51.442;7.370;2023-05-07T01:23:31;7.03;;;5.23;;
71238;SDS011;61342;51.442;7.370;2023-05-07T01:24:33;6.10;;;5.23;;
71238;SDS011;61342;51.442;7.370;2023-05-07T01:25:36;5.23;;;4.73;;
71238;SDS011;61342;51.442;7.370;2023-05-07T01:26:36;6.97;;;4.97;;
71238;SDS011;61342;51.442;7.370;2023-05-07T01:27:37;7.43;;;6.23;;
71238;SDS011;61342;51.442;7.370;2023-05-07T01:28:38;7.63;;;6.10;;
71238;SDS011;61342;51.442;7.370;2023-05-07T01:29:38;8.27;;;6.73;;
71238;SDS011;61342;51.442;7.370;2023-05-07T01:30:38;7.47;;;6.40;;
71238;SDS011;61342;51.442;7.370;2023-05-07T01:31:42;7.90;;;6.03;;
71238;SDS011;61342;51.442;7.370;2023-05-07T01:32:45;8.43;;;5.93;;
71238;SDS011;61342;51.442;7.370;2023-05-07T01:33:49;8.90;;;6.50;;
71238;SDS011;61342;51.442;7.370;2023-05-07T01:34:52;9.00;;;6.43;;
71238;SDS011;61342;51.442;7.370;2023-05-07T01:35:53;7.83;;;6.50;;
71238;SDS011;61342;51.442;7.370;2023-05-07T01:36:55;8.10;;;7.07;;
71238;SDS011;61342;51.442;7.370;2023-05-07T01:37:57;9.63;;;6.97;;
71238;SDS011;61342;51.442;7.370;2023-05-07T01:38:58;8.57;;;7.10;;
71238;SDS011;61342;51.442;7.370;2023-05-07T01:40:00;8.57;;;6.83;;
71238;SDS011;61342;51.442;7.370;2023-05-07T01:41:02;8.93;;;6.70;;
71238;SDS011;61342;51.442;7.370;2023-05-07T01:42:03;8.30;;;7.10;;
71238;SDS011;61342;51.442;7.370;2023-05-07T01:43:03;8.03;;;6.73;;
71238;SDS011;61342;51.442;7.370;2023-05-07T01:44:05;8.77;;;7.57;;
71238;SDS011;61342;51.442;7.370;2023-05-07T01:45:06;7.87;;;7.07;;
71238;SDS011;61342;51.442;7.370;2023-05-07T01:46:07;7.90;;;7.07;;
71238;SDS011;61342;51.442;7.370;2023-05-07T01:47:10;11.10;;;7.40;;
71238;SDS011;61342;51.442;7.370;2023-05-07T01:48:11;8.67;;;7.13;;
71238;SDS011;61342;51.442;7.370;2023-05-07T01:49:12;9.10;;;7.10;;
71238;SDS011;61342;51.442;7.370;2023-05-07T01:50:13;7.57;;;6.70;;
71238;SDS011;61342;51.442;7.370;2023-05-07T01:51:16;7.37;;;6.60;;
71238;SDS011;61342;51.442;7.370;2023-05-07T01:52:17;8.90;;;6.97;;
71238;SDS011;61342;51.442;7.370;2023-05-07T01:53:17;8.37;;;6.90;;
71238;SDS011;61342;51.442;7.370;2023-05-07T01:54:18;7.37;;;6.23;;
71238;SDS011;61342;51.442;7.370;2023-05-07T01:55:18;9.77;;;6.57;;
71238;SDS011;61342;51.442;7.370;2023-05-07T01:56:19;7.13;;;6.43;;
71238;SDS011;61342;51.442;7.370;2023-05-07T01:57:20;9.27;;;6.60;;
71238;SDS011;61342;51.442;7.370;2023-05-07T01:58:20;7.23;;;6.50;;
71238;SDS011;61342;51.442;7.370;2023-05-07T01:59:21;8.23;;;6.80;;
71238;SDS011;61342;51.442;7.370;2023-05-07T02:00:21;7.97;;;6.23;;
71238;SDS011;61342;51.442;7.370;2023-05-07T02:01:22;8.20;;;6.20;;
71238;SDS011;61342;51.442;7.370;2023-05-07T02:02:22;7.53;;;6.70;;
71238;SDS011;61342;51.442;7.370;2023-05-07T02:03:23;7.17;;;6.33;;
71238;SDS011;61342;51.442;7.370;2023-05-07T02:04:23;9.37;;;6.40;;
71238;SDS011;61342;51.442;7.370;2023-05-07T02:05:24;7.33;;;6.70;;
71238;SDS011;61342;51.442;7.370;2023-05-07T02:06:25;8.07;;;6.67;;
71238;SDS011;61342;51.442;7.370;2023-05-07T02:07:25;7.90;;;7.07;;
71238;SDS011;61342;51.442;7.370;2023-05-07T02:08:25;8.07;;;6.97;;
71238;SDS011;61342;51.442;7.370;2023-05-07T02:09:26;9.60;;;7.27;;
71238;SDS011;61342;51.442;7.370;2023-05-07T02:10:26;8.50;;;7.37;;
71238;SDS011;61342;51.442;7.370;2023-05-07T02:11:26;7.50;;;6.70;;
71238;SDS011;61342;51.442;7.370;2023-05-07T02:12:27;8.17;;;6.80;;
71238;SDS011;61342;51.442;7.370;2023-05-07T02:13:31;8.13;;;6.60;;
71238;SDS011;61342;51.442;7.370;2023-05-07T02:14:33;7.60;;;6.90;;
71238;SDS011;61342;51.442;7.370;2023-05-07T02:15:33;9.83;;;7.20;;
71238;SDS011;61342;51.442;7.370;2023-05-07T02:16:33;8.83;;;6.30;;
71238;SDS011;61342;51.442;7.370;2023-05-07T02:17:34;9.23;;;6.67;;
71238;SDS011;61342;51.442;7.370;2023-05-07T02:18:35;8.43;;;6.73;;
71238;SDS011;61342;51.442;7.370;2023-05-07T02:19:35;7.50;;;6.77;;
71238;SDS011;61342;51.442;7.370;2023-05-07T02:20:36;7.60;;;6.37;;
71238;SDS011;61342;51.442;7.370;2023-05-07T02:21:36;8.77;;;6.60;;
71238;SDS011;61342;51.442;7.370;2023-05-07T02:22:36;8.20;;;6.73;;
71238;SDS011;61342;51.442;7.370;2023-05-07T02:23:37;9.10;;;6.27;;
71238;SDS011;61342;51.442;7.370;2023-05-07T02:24:37;6.67;;;6.07;;
71238;SDS011;61342;51.442;7.370;2023-05-07T02:25:38;7.10;;;6.40;;
71238;SDS011;61342;51.442;7.370;2023-05-07T02:26:39;8.07;;;6.80;;
71238;SDS011;61342;51.442;7.370;2023-05-07T02:27:40;7.43;;;6.73;;
71238;SDS011;61342;51.442;7.370;2023-05-07T02:28:41;9.07;;;6.77;;
71238;SDS011;61342;51.442;7.370;2023-05-07T02:29:41;8.03;;;6.50;;
71238;SDS011;61342;51.442;7.370;2023-05-07T02:30:41;7.17;;;6.57;;
71238;SDS011;61342;51.442;7.370;2023-05-07T02:31:42;7.03;;;6.30;;
71238;SDS011;61342;51.442;7.370;2023-05-07T02:32:42;8.13;;;6.00;;
71238;SDS011;61342;51.442;7.370;2023-05-07T02:33:43;8.73;;;6.83;;
71238;SDS011;61342;51.442;7.370;2023-05-07T02:34:43;8.63;;;6.60;;
71238;SDS011;61342;51.442;7.370;2023-05-07T02:35:44;7.37;;;6.20;;
71238;SDS011;61342;51.442;7.370;2023-05-07T02:36:44;9.33;;;6.47;;
71238;SDS011;61342;51.442;7.370;2023-05-07T02:37:45;8.10;;;6.53;;
71238;SDS011;61342;51.442;7.370;2023-05-07T02:38:46;7.20;;;6.13;;
71238;SDS011;61342;51.442;7.370;2023-05-07T02:39:46;6.60;;;6.00;;
71238;SDS011;61342;51.442;7.370;2023-05-07T02:40:46;10.17;;;6.17;;
71238;SDS011;61342;51.442;7.370;2023-05-07T02:41:47;7.03;;;6.20;;
71238;SDS011;61342;51.442;7.370;2023-05-07T02:42:47;6.43;;;5.70;;
71238;SDS011;61342;51.442;7.370;2023-05-07T02:43:47;7.00;;;6.23;;
71238;SDS011;61342;51.442;7.370;2023-05-07T02:44:48;6.43;;;5.80;;
71238;SDS011;61342;51.442;7.370;2023-05-07T02:45:48;7.93;;;6.20;;
71238;SDS011;61342;51.442;7.370;2023-05-07T02:46:48;7.57;;;6.20;;
71238;SDS011;61342;51.442;7.370;2023-05-07T02:47:49;6.87;;;5.90;;
71238;SDS011;61342;51.442;7.370;2023-05-07T02:48:49;9.30;;;6.63;;
71238;SDS011;61342;51.442;7.370;2023-05-07T02:49:50;8.80;;;6.40;;
71238;SDS011;61342;51.442;7.370;2023-05-07T02:50:50;7.87;;;5.83;;
71238;SDS011;61342;51.442;7.370;2023-05-07T02:51:50;9.03;;;6.27;;
71238;SDS011;61342;51.442;7.370;2023-05-07T02:52:51;6.27;;;5.57;;
71238;SDS011;61342;51.442;7.370;2023-05-07T02:53:51;7.03;;;6.33;;
71238;SDS011;61342;51.442;7.370;2023-05-07T02:54:51;9.87;;;6.10;;
71238;SDS011;61342;51.442;7.370;2023-05-07T02:55:53;9.33;;;6.10;;
71238;SDS011;61342;51.442;7.370;2023-05-07T02:56:53;10.27;;;6.47;;
71238;SDS011;61342;51.442;7.370;2023-05-07T02:57:54;11.03;;;6.17;;
71238;SDS011;61342;51.442;7.370;2023-05-07T02:58:54;6.43;;;5.77;;
71238;SDS011;61342;51.442;7.370;2023-05-07T02:59:54;8.23;;;6.73;;
71238;SDS011;61342;51.442;7.370;2023-05-07T03:00:55;9.43;;;6.47;;
71238;SDS011;61342;51.442;7.370;2023-05-07T03:01:55;10.23;;;5.97;;
71238;SDS011;61342;51.442;7.370;2023-05-07T03:02:56;8.00;;;5.87;;
71238;SDS011;61342;51.442;7.370;2023-05-07T03:03:56;9.17;;;6.03;;
71238;SDS011;61342;51.442;7.370;2023-05-07T03:04:56;8.13;;;6.47;;
71238;SDS011;61342;51.442;7.370;2023-05-07T03:05:57;6.67;;;5.90;;
71238;SDS011;61342;51.442;7.370;2023-05-07T03:06:57;7.57;;;5.90;;
71238;SDS011;61342;51.442;7.370;2023-05-07T03:07:57;7.63;;;6.07;;
71238;SDS011;61342;51.442;7.370;2023-05-07T03:08:58;7.53;;;6.67;;
71238;SDS011;61342;51.442;7.370;2023-05-07T03:09:58;8.93;;;6.03;;
71238;SDS011;61342;51.442;7.370;2023-05-07T03:10:58;7.20;;;6.27;;
71238;SDS011;61342;51.442;7.370;2023-05-07T03:11:59;6.63;;;5.83;;
71238;SDS011;61342;51.442;7.370;2023-05-07T03:13:00;10.57;;;6.20;;
71238;SDS011;61342;51.442;7.370;2023-05-07T03:14:01;6.97;;;5.87;;
71238;SDS011;61342;51.442;7.370;2023-05-07T03:15:02;8.50;;;5.70;;
71238;SDS011;61342;51.442;7.370;2023-05-07T03:16:02;7.43;;;5.83;;
71238;SDS011;61342;51.442;7.370;2023-05-07T03:17:03;6.40;;;5.80;;
71238;SDS011;61342;51.442;7.370;2023-05-07T03:18:03;6.77;;;6.00;;
71238;SDS011;61342;51.442;7.370;2023-05-07T03:19:03;7.57;;;5.87;;
71238;SDS011;61342;51.442;7.370;2023-05-07T03:20:04;6.77;;;5.30;;
71238;SDS011;61342;51.442;7.370;2023-05-07T03:21:05;8.53;;;6.47;;
71238;SDS011;61342;51.442;7.370;2023-05-07T03:22:05;6.70;;;5.67;;
71238;SDS011;61342;51.442;7.370;2023-05-07T03:23:06;6.80;;;5.70;;
71238;SDS011;61342;51.442;7.370;2023-05-07T03:24:06;6.77;;;5.60;;
71238;SDS011;61342;51.442;7.370;2023-05-07T03:25:07;7.73;;;6.40;;
71238;SDS011;61342;51.442;7.370;2023-05-07T03:26:08;6.47;;;5.87;;
71238;SDS011;61342;51.442;7.370;2023-05-07T03:27:09;6.93;;;5.70;;
71238;SDS011;61342;51.442;7.370;2023-05-07T03:28:09;6.53;;;5.80;;
71238;SDS011;61342;51.442;7.370;2023-05-07T03:29:10;8.00;;;6.80;;
71238;SDS011;61342;51.442;7.370;2023-05-07T03:30:10;9.80;;;6.30;;
71238;SDS011;61342;51.442;7.370;2023-05-07T03:31:11;8.53;;;6.90;;
71238;SDS011;61342;51.442;7.370;2023-05-07T03:32:11;7.73;;;6.40;;
71238;SDS011;61342;51.442;7.370;2023-05-07T03:33:12;8.47;;;6.37;;
71238;SDS011;61342;51.442;7.370;2023-05-07T03:34:12;7.27;;;6.57;;
71238;SDS011;61342;51.442;7.370;2023-05-07T03:35:13;8.20;;;6.93;;
71238;SDS011;61342;51.442;7.370;2023-05-07T03:36:13;8.23;;;6.77;;
71238;SDS011;61342;51.442;7.370;2023-05-07T03:37:14;8.77;;;7.23;;
71238;SDS011;61342;51.442;7.370;2023-05-07T03:38:14;10.83;;;6.90;;
71238;SDS011;61342;51.442;7.370;2023-05-07T03:39:15;7.93;;;7.13;;
71238;SDS011;61342;51.442;7.370;2023-05-07T03:40:15;8.37;;;7.13;;
71238;SDS011;61342;51.442;7.370;2023-05-07T03:41:15;8.30;;;7.40;;
71238;SDS011;61342;51.442;7.370;2023-05-07T03:42:16;8.67;;;7.77;;
71238;SDS011;61342;51.442;7.370;2023-05-07T03:43:16;7.93;;;6.63;;
71238;SDS011;61342;51.442;7.370;2023-05-07T03:44:17;8.33;;;7.47;;
71238;SDS011;61342;51.442;7.370;2023-05-07T03:45:17;8.00;;;7.20;;
71238;SDS011;61342;51.442;7.370;2023-05-07T03:46:18;11.50;;;7.53;;
71238;SDS011;61342;51.442;7.370;2023-05-07T03:47:18;9.50;;;7.17;;
71238;SDS011;61342;51.442;7.370;2023-05-07T03:48:18;8.00;;;7.20;;
71238;SDS011;61342;51.442;7.370;2023-05-07T03:49:19;8.13;;;7.30;;
71238;SDS011;61342;51.442;7.370;2023-05-07T03:50:19;9.40;;;7.80;;
71238;SDS011;61342;51.442;7.370;2023-05-07T03:51:20;8.80;;;7.43;;
71238;SDS011;61342;51.442;7.370;2023-05-07T03:52:20;10.97;;;8.03;;
71238;SDS011;61342;51.442;7.370;2023-05-07T03:53:24;8.70;;;7.90;;
71238;SDS011;61342;51.442;7.370;2023-05-07T03:54:25;12.37;;;8.70;;
71238;SDS011;61342;51.442;7.370;2023-05-07T03:55:25;10.97;;;8.57;;
71238;SDS011;61342;51.442;7.370;2023-05-07T03:56:26;17.63;;;9.70;;
71238;SDS011;61342;51.442;7.370;2023-05-07T03:57:27;16.70;;;9.73;;
71238;SDS011;61342;51.442;7.370;2023-05-07T03:58:28;9.73;;;8.17;;
71238;SDS011;61342;51.442;7.370;2023-05-07T03:59:28;8.77;;;7.97;;
71238;SDS011;61342;51.442;7.370;2023-05-07T04:00:28;8.77;;;7.97;;
71238;SDS011;61342;51.442;7.370;2023-05-07T04:01:33;8.93;;;8.03;;
71238;SDS011;61342;51.442;7.370;2023-05-07T04:02:33;9.23;;;8.33;;
71238;SDS011;61342;51.442;7.370;2023-05-07T04:03:34;9.10;;;8.20;;
71238;SDS011;61342;51.442;7.370;2023-05-07T04:04:34;10.20;;;8.00;;
71238;SDS011;61342;51.442;7.370;2023-05-07T04:05:35;9.10;;;7.93;;
71238;SDS011;61342;51.442;7.370;2023-05-07T04:06:35;9.17;;;8.27;;
71238;SDS011;61342;51.442;7.370;2023-05-07T04:07:36;9.77;;;8.73;;
71238;SDS011;61342;51.442;7.370;2023-05-07T04:08:36;10.47;;;8.80;;
71238;SDS011;61342;51.442;7.370;2023-05-07T04:09:36;11.93;;;8.93;;
71238;SDS011;61342;51.442;7.370;2023-05-07T04:10:37;9.50;;;8.53;;
71238;SDS011;61342;51.442;7.370;2023-05-07T04:11:37;10.13;;;7.83;;
71238;SDS011;61342;51.442;7.370;2023-05-07T04:12:40;10.20;;;9.03;;
71238;SDS011;61342;51.442;7.370;2023-05-07T04:13:40;9.00;;;8.10;;
71238;SDS011;61342;51.442;7.370;2023-05-07T04:14:40;9.97;;;7.87;;
71238;SDS011;61342;51.442;7.370;2023-05-07T04:15:41;9.63;;;8.67;;
71238;SDS011;61342;51.442;7.370;2023-05-07T04:16:41;9.40;;;8.40;;
71238;SDS011;61342;51.442;7.370;2023-05-07T04:17:41;9.57;;;8.53;;
71238;SDS011;61342;51.442;7.370;2023-05-07T04:18:42;9.57;;;8.27;;
71238;SDS011;61342;51.442;7.370;2023-05-07T04:19:42;12.40;;;8.20;;
71238;SDS011;61342;51.442;7.370;2023-05-07T04:20:45;9.83;;;8.83;;
71238;SDS011;61342;51.442;7.370;2023-05-07T04:21:45;8.60;;;7.73;;
71238;SDS011;61342;51.442;7.370;2023-05-07T04:22:46;12.23;;;9.17;;
71238;SDS011;61342;51.442;7.370;2023-05-07T04:23:46;9.37;;;8.40;;
71238;SDS011;61342;51.442;7.370;2023-05-07T04:24:47;9.30;;;8.37;;
71238;SDS011;61342;51.442;7.370;2023-05-07T04:25:48;9.00;;;8.17;;
71238;SDS011;61342;51.442;7.370;2023-05-07T04:26:48;9.27;;;8.37;;
71238;SDS011;61342;51.442;7.370;2023-05-07T04:27:49;10.37;;;8.07;;
71238;SDS011;61342;51.442;7.370;2023-05-07T04:28:50;8.77;;;7.77;;
71238;SDS011;61342;51.442;7.370;2023-05-07T04:29:51;10.23;;;8.20;;
71238;SDS011;61342;51.442;7.370;2023-05-07T04:30:51;11.47;;;8.63;;
71238;SDS011;61342;51.442;7.370;2023-05-07T04:31:52;8.00;;;7.30;;
71238;SDS011;61342;51.442;7.370;2023-05-07T04:32:52;9.20;;;7.73;;
71238;SDS011;61342;51.442;7.370;2023-05-07T04:33:53;8.40;;;7.60;;
71238;SDS011;61342;51.442;7.370;2023-05-07T04:34:53;9.17;;;8.00;;
71238;SDS011;61342;51.442;7.370;2023-05-07T04:35:53;8.37;;;7.50;;
71238;SDS011;61342;51.442;7.370;2023-05-07T04:36:54;9.80;;;8.07;;
71238;SDS011;61342;51.442;7.370;2023-05-07T04:37:58;8.13;;;7.17;;
71238;SDS011;61342;51.442;7.370;2023-05-07T04:38:59;8.87;;;7.83;;
71238;SDS011;61342;51.442;7.370;2023-05-07T04:39:59;9.53;;;7.63;;
71238;SDS011;61342;51.442;7.370;2023-05-07T04:41:03;8.77;;;7.70;;
71238;SDS011;61342;51.442;7.370;2023-05-07T04:42:05;10.20;;;7.83;;
71238;SDS011;61342;51.442;7.370;2023-05-07T04:43:09;8.67;;;7.87;;
71238;SDS011;61342;51.442;7.370;2023-05-07T04:44:10;7.97;;;7.17;;
71238;SDS011;61342;51.442;7.370;2023-05-07T04:45:10;8.30;;;7.53;;
71238;SDS011;61342;51.442;7.370;2023-05-07T04:46:12;11.63;;;7.87;;
71238;SDS011;61342;51.442;7.370;2023-05-07T04:47:12;8.30;;;7.50;;
71238;SDS011;61342;51.442;7.370;2023-05-07T04:48:13;7.80;;;7.10;;
71238;SDS011;61342;51.442;7.370;2023-05-07T04:49:15;7.83;;;7.03;;
71238;SDS011;61342;51.442;7.370;2023-05-07T04:50:15;7.67;;;6.97;;
71238;SDS011;61342;51.442;7.370;2023-05-07T04:51:16;10.33;;;6.97;;
71238;SDS011;61342;51.442;7.370;2023-05-07T04:52:16;7.93;;;7.13;;
71238;SDS011;61342;51.442;7.370;2023-05-07T04:53:17;7.50;;;6.80;;
71238;SDS011;61342;51.442;7.370;2023-05-07T04:54:17;7.07;;;6.43;;
71238;SDS011;61342;51.442;7.370;2023-05-07T04:55:18;8.43;;;7.03;;
71238;SDS011;61342;51.442;7.370;2023-05-07T04:56:18;6.83;;;6.13;;
71238;SDS011;61342;51.442;7.370;2023-05-07T04:57:19;7.53;;;6.70;;
71238;SDS011;61342;51.442;7.370;2023-05-07T04:58:19;8.10;;;7.30;;
71238;SDS011;61342;51.442;7.370;2023-05-07T04:59:19;6.53;;;5.93;;
71238;SDS011;61342;51.442;7.370;2023-05-07T05:00:20;6.93;;;6.33;;
71238;SDS011;61342;51.442;7.370;2023-05-07T05:01:20;7.83;;;6.17;;
71238;SDS011;61342;51.442;7.370;2023-05-07T05:02:21;7.50;;;6.40;;
71238;SDS011;61342;51.442;7.370;2023-05-07T05:03:21;9.63;;;6.23;;
71238;SDS011;61342;51.442;7.370;2023-05-07T05:04:21;7.77;;;6.47;;
71238;SDS011;61342;51.442;7.370;2023-05-07T05:05:22;7.70;;;6.33;;
71238;SDS011;61342;51.442;7.370;2023-05-07T05:06:22;7.90;;;6.20;;
71238;SDS011;61342;51.442;7.370;2023-05-07T05:07:22;8.17;;;6.03;;
71238;SDS011;61342;51.442;7.370;2023-05-07T05:08:23;8.33;;;6.07;;
71238;SDS011;61342;51.442;7.370;2023-05-07T05:09:23;7.97;;;6.30;;
71238;SDS011;61342;51.442;7.370;2023-05-07T05:10:24;6.90;;;6.10;;
71238;SDS011;61342;51.442;7.370;2023-05-07T05:11:25;6.80;;;6.10;;
71238;SDS011;61342;51.442;7.370;2023-05-07T05:12:25;6.10;;;5.33;;
71238;SDS011;61342;51.442;7.370;2023-05-07T05:13:26;7.33;;;5.80;;
71238;SDS011;61342;51.442;7.370;2023-05-07T05:14:26;7.60;;;5.73;;
71238;SDS011;61342;51.442;7.370;2023-05-07T05:15:26;6.80;;;5.90;;
71238;SDS011;61342;51.442;7.370;2023-05-07T05:16:27;6.60;;;5.97;;
71238;SDS011;61342;51.442;7.370;2023-05-07T05:17:27;6.73;;;5.40;;
71238;SDS011;61342;51.442;7.370;2023-05-07T05:18:28;7.20;;;5.37;;
71238;SDS011;61342;51.442;7.370;2023-05-07T05:19:28;7.83;;;5.63;;
71238;SDS011;61342;51.442;7.370;2023-05-07T05:20:28;8.53;;;5.77;;
71238;SDS011;61342;51.442;7.370;2023-05-07T05:21:31;6.03;;;5.33;;
71238;SDS011;61342;51.442;7.370;2023-05-07T05:22:32;11.27;;;5.73;;
71238;SDS011;61342;51.442;7.370;2023-05-07T05:23:32;9.10;;;5.40;;
71238;SDS011;61342;51.442;7.370;2023-05-07T05:24:33;6.67;;;5.23;;
71238;SDS011;61342;51.442;7.370;2023-05-07T05:25:33;7.00;;;5.50;;
71238;SDS011;61342;51.442;7.370;2023-05-07T05:26:34;6.00;;;5.10;;
71238;SDS011;61342;51.442;7.370;2023-05-07T05:27:34;5.77;;;5.10;;
71238;SDS011;61342;51.442;7.370;2023-05-07T05:28:35;6.90;;;4.97;;
71238;SDS011;61342;51.442;7.370;2023-05-07T05:29:36;6.90;;;5.00;;
71238;SDS011;61342;51.442;7.370;2023-05-07T05:30:36;6.73;;;4.93;;
71238;SDS011;61342;51.442;7.370;2023-05-07T05:31:36;7.07;;;5.17;;
71238;SDS011;61342;51.442;7.370;2023-05-07T05:32:37;6.23;;;5.20;;
71238;SDS011;61342;51.442;7.370;2023-05-07T05:33:37;6.00;;;5.20;;
71238;SDS011;61342;51.442;7.370;2023-05-07T05:34:38;6.37;;;5.23;;
71238;SDS011;61342;51.442;7.370;2023-05-07T05:35:38;6.53;;;5.20;;
71238;SDS011;61342;51.442;7.370;2023-05-07T05:36:38;7.73;;;5.43;;
71238;SDS011;61342;51.442;7.370;2023-05-07T05:37:39;5.70;;;5.10;;
71238;SDS011;61342;51.442;7.370;2023-05-07T05:38:39;7.20;;;5.50;;
71238;SDS011;61342;51.442;7.370;2023-05-07T05:39:40;8.43;;;5.60;;
71238;SDS011;61342;51.442;7.370;2023-05-07T05:40:41;7.97;;;5.60;;
71238;SDS011;61342;51.442;7.370;2023-05-07T05:41:41;7.63;;;5.50;;
71238;SDS011;61342;51.442;7.370;2023-05-07T05:42:42;5.97;;;5.37;;
71238;SDS011;61342;51.442;7.370;2023-05-07T05:43:42;7.07;;;5.37;;
71238;SDS011;61342;51.442;7.370;2023-05-07T05:44:42;6.10;;;5.30;;
71238;SDS011;61342;51.442;7.370;2023-05-07T05:45:43;6.00;;;5.50;;
71238;SDS011;61342;51.442;7.370;2023-05-07T05:46:43;8.90;;;5.53;;
71238;SDS011;61342;51.442;7.370;2023-05-07T05:47:43;5.90;;;5.00;;
71238;SDS011;61342;51.442;7.370;2023-05-07T05:48:44;6.63;;;5.83;;
71238;SDS011;61342;51.442;7.370;2023-05-07T05:49:44;8.93;;;5.57;;
71238;SDS011;61342;51.442;7.370;2023-05-07T05:50:45;9.43;;;5.33;;
71238;SDS011;61342;51.442;7.370;2023-05-07T05:51:45;6.57;;;5.87;;
71238;SDS011;61342;51.442;7.370;2023-05-07T05:52:45;6.20;;;5.60;;
71238;SDS011;61342;51.442;7.370;2023-05-07T05:53:46;7.50;;;5.53;;
71238;SDS011;61342;51.442;7.370;2023-05-07T05:54:46;6.43;;;5.67;;
71238;SDS011;61342;51.442;7.370;2023-05-07T05:55:47;7.83;;;5.77;;
71238;SDS011;61342;51.442;7.370;2023-05-07T05:56:47;5.80;;;5.20;;
71238;SDS011;61342;51.442;7.370;2023-05-07T05:57:48;6.00;;;5.47;;
71238;SDS011;61342;51.442;7.370;2023-05-07T05:58:48;6.27;;;5.67;;
71238;SDS011;61342;51.442;7.370;2023-05-07T05:59:48;5.83;;;5.17;;
71238;SDS011;61342;51.442;7.370;2023-05-07T06:00:49;10.33;;;6.20;;
71238;SDS011;61342;51.442;7.370;2023-05-07T06:01:52;5.97;;;5.40;;
71238;SDS011;61342;51.442;7.370;2023-05-07T06:02:52;7.00;;;5.20;;
71238;SDS011;61342;51.442;7.370;2023-05-07T06:03:53;8.13;;;5.20;;
71238;SDS011;61342;51.442;7.370;2023-05-07T06:04:53;6.83;;;5.30;;